createdAt,value
2022-09-11T00:03:42.672Z,98.65
2022-09-11T00:08:44.442Z,94.23
2022-09-11T00:13:48.566Z,94.39
2022-09-11T00:18:50.884Z,94.09
2022-09-11T00:23:53.264Z,95.63
2022-09-11T00:28:55.265Z,94.72
2022-09-11T00:33:56.974Z,92.16
2022-09-11T00:38:58.979Z,93.62
2022-09-11T00:44:12.581Z,92.36
2022-09-11T00:49:14.431Z,93.61
2022-09-11T00:54:20.240Z,92.99
2022-09-11T00:59:26.866Z,93.54
2022-09-11T01:04:29.187Z,93.80
2022-09-11T01:09:33.015Z,96.75
2022-09-11T01:14:52.739Z,93.80
2022-09-11T01:20:23.844Z,91.80
2022-09-11T01:25:46.548Z,92.63
2022-09-11T01:30:54.004Z,92.99
2022-09-11T01:35:58.323Z,92.03
2022-09-11T01:41:16.344Z,91.95
2022-09-11T01:46:22.891Z,92.70
2022-09-11T01:51:29.624Z,92.52
2022-09-11T01:56:37.142Z,94.78
2022-09-11T02:01:44.694Z,92.91
2022-09-11T02:06:53.245Z,95.89
2022-09-11T02:11:57.949Z,93.36
2022-09-11T02:17:33.604Z,94.94
2022-09-11T02:22:36.236Z,94.24
2022-09-11T02:27:37.659Z,99.10
2022-09-11T02:32:43.276Z,97.08
2022-09-11T02:38:05.818Z,94.95
2022-09-11T02:43:28.719Z,96.42
2022-09-11T02:48:53.217Z,96.14
2022-09-11T02:54:25.684Z,98.79
2022-09-11T02:59:34.060Z,98.65
2022-09-11T03:04:36.267Z,97.02
2022-09-11T03:09:37.886Z,97.26
2022-09-11T03:14:39.354Z,98.49
2022-09-11T03:19:40.697Z,98.09
2022-09-11T03:24:42.107Z,98.77
2022-09-11T03:29:44.745Z,99.70
2022-09-11T03:34:47.453Z,97.71
2022-09-11T03:39:48.829Z,96.79
2022-09-11T03:44:50.264Z,96.18
2022-09-11T03:49:51.613Z,97.79
2022-09-11T03:54:52.942Z,99.14
2022-09-11T03:59:56.593Z,100.00
2022-09-11T04:04:57.951Z,100.00
2022-09-11T04:09:59.319Z,99.74
2022-09-11T04:15:02.135Z,100.00
2022-09-11T04:20:04.746Z,99.00
2022-09-11T04:25:06.853Z,98.91
2022-09-11T04:30:08.991Z,100.00
2022-09-11T04:35:10.870Z,100.00
2022-09-11T04:40:12.253Z,100.00
2022-09-11T04:45:13.706Z,100.00
2022-09-11T04:50:15.468Z,100.00
2022-09-11T04:55:16.982Z,98.76
2022-09-11T05:00:18.461Z,100.00
2022-09-11T05:05:20.431Z,99.50
2022-09-11T05:10:21.790Z,98.38
2022-09-11T05:15:23.131Z,98.42
2022-09-11T05:20:24.407Z,100.00
2022-09-11T05:25:25.815Z,99.85
2022-09-11T05:30:29.061Z,100.00
2022-09-11T05:35:32.520Z,100.00
2022-09-11T05:40:33.975Z,98.99
2022-09-11T05:45:35.457Z,97.96
2022-09-11T05:50:37.435Z,98.71
2022-09-11T05:55:38.775Z,98.60
2022-09-11T06:00:40.839Z,98.74
2022-09-11T06:05:42.950Z,98.37
2022-09-11T06:10:48.232Z,99.48
2022-09-11T06:15:49.581Z,100.00
2022-09-11T06:21:10.193Z,100.00
2022-09-11T06:26:14.091Z,100.00
2022-09-11T06:31:17.390Z,98.92
2022-09-11T06:36:24.236Z,100.00
2022-09-11T06:41:27.024Z,100.00
2022-09-11T06:46:28.709Z,100.00
2022-09-11T06:51:30.117Z,100.00
2022-09-11T06:56:34.639Z,100.00
2022-09-11T07:01:36.187Z,100.00
2022-09-11T07:06:38.544Z,100.00
2022-09-11T07:11:43.695Z,100.00
2022-09-11T07:16:46.139Z,98.48
2022-09-11T07:21:47.594Z,98.03
2022-09-11T07:26:48.971Z,99.74
2022-09-11T07:31:50.414Z,100.00
2022-09-11T07:36:52.866Z,100.00
2022-09-11T07:41:54.273Z,100.00
2022-09-11T07:46:55.757Z,100.00
2022-09-11T07:51:57.087Z,100.00
2022-09-11T07:56:58.442Z,100.00
2022-09-11T08:01:59.913Z,100.00
2022-09-11T08:07:01.497Z,100.00
2022-09-11T08:12:03.035Z,98.75
2022-09-11T08:17:04.503Z,100.00
2022-09-11T08:22:05.954Z,100.00
2022-09-11T08:27:07.388Z,98.79
2022-09-11T08:32:08.942Z,98.30
2022-09-11T08:37:10.743Z,100.00
2022-09-11T08:42:16.534Z,99.26
2022-09-11T08:47:24.782Z,100.00
2022-09-11T08:52:27.189Z,100.00
2022-09-11T08:57:52.655Z,100.00
2022-09-11T09:03:21.272Z,100.00
2022-09-11T09:08:47.377Z,100.00
2022-09-11T09:14:10.580Z,99.50
2022-09-11T09:19:20.039Z,100.00
2022-09-11T09:24:22.557Z,99.93
2022-09-11T09:29:30.436Z,99.14
2022-09-11T09:34:37.981Z,98.82
2022-09-11T09:39:39.962Z,99.38
2022-09-11T09:44:50.470Z,99.40
2022-09-11T09:49:52.556Z,98.96
2022-09-11T09:55:01.292Z,98.93
2022-09-11T10:00:07.522Z,97.49
2022-09-11T10:05:41.428Z,98.38
2022-09-11T10:10:42.859Z,97.80
2022-09-11T10:15:44.814Z,97.67
2022-09-11T10:20:46.264Z,98.41
2022-09-11T10:25:49.800Z,97.97
2022-09-11T10:30:59.254Z,96.69
2022-09-11T10:36:05.263Z,96.61
2022-09-11T10:41:21.480Z,96.34
2022-09-11T10:46:24.781Z,95.46
2022-09-11T10:51:29.830Z,94.53
2022-09-11T10:56:36.099Z,95.05
2022-09-11T11:01:37.617Z,94.40
2022-09-11T11:06:45.290Z,95.45
2022-09-11T11:12:23.914Z,94.45
2022-09-11T11:17:55.822Z,93.87
2022-09-11T11:23:05.449Z,93.62
2022-09-11T11:28:26.107Z,93.62
2022-09-11T11:33:39.605Z,94.03
2022-09-11T11:39:13.098Z,93.47
2022-09-11T11:44:21.646Z,92.49
2022-09-11T11:49:33.955Z,92.62
2022-09-11T11:54:52.277Z,91.31
2022-09-11T11:59:53.554Z,92.09
2022-09-11T12:05:03.238Z,90.45
2022-09-11T12:10:07.226Z,90.79
2022-09-11T12:15:17.680Z,90.15
2022-09-11T12:20:34.814Z,90.47
2022-09-11T12:25:36.330Z,89.75
2022-09-11T12:31:14.223Z,90.21
2022-09-11T12:36:42.626Z,89.91
2022-09-11T12:41:45.786Z,88.84
2022-09-11T12:46:47.095Z,89.57
2022-09-11T12:51:58.402Z,88.68
2022-09-11T12:57:04.477Z,89.74
2022-09-11T13:02:28.500Z,89.12
2022-09-11T13:07:42.969Z,88.37
2022-09-11T13:12:55.071Z,88.65
2022-09-11T13:17:56.394Z,87.32
2022-09-11T13:23:18.284Z,88.75
2022-09-11T13:28:24.296Z,87.69
2022-09-11T13:33:29.774Z,87.44
2022-09-11T13:38:36.475Z,87.17
2022-09-11T13:43:44.236Z,87.85
2022-09-11T13:48:49.209Z,88.00
2022-09-11T13:54:05.664Z,87.77
2022-09-11T13:59:25.710Z,87.08
2022-09-11T14:04:29.230Z,87.78
2022-09-11T14:09:30.700Z,86.90
2022-09-11T14:14:33.082Z,86.90
2022-09-11T14:19:36.643Z,86.60
2022-09-11T14:24:38.347Z,86.35
2022-09-11T14:29:40.903Z,85.27
2022-09-11T14:34:42.244Z,85.87
2022-09-11T14:39:47.703Z,83.22
2022-09-11T14:44:49.184Z,86.23
2022-09-11T14:49:53.255Z,84.35
2022-09-11T14:54:56.467Z,82.96
2022-09-11T14:59:59.421Z,85.64
2022-09-11T15:05:00.775Z,85.31
2022-09-11T15:10:02.211Z,84.74
2022-09-11T15:15:04.558Z,85.22
2022-09-11T15:20:09.078Z,84.48
2022-09-11T15:25:11.146Z,84.88
2022-09-11T15:30:12.740Z,80.67
2022-09-11T15:35:18.266Z,79.28
2022-09-11T15:40:20.139Z,80.42
2022-09-11T15:45:21.537Z,74.57
2022-09-11T15:50:28.200Z,76.37
2022-09-11T15:55:30.079Z,79.25
2022-09-11T16:00:31.449Z,77.24
2022-09-11T16:05:38.470Z,79.38
2022-09-11T16:10:39.837Z,79.25
2022-09-11T16:15:41.247Z,83.07
2022-09-11T16:20:43.807Z,81.49
2022-09-11T16:25:45.236Z,83.23
2022-09-11T16:30:51.459Z,81.64
2022-09-11T16:36:01.552Z,82.06
2022-09-11T16:41:07.493Z,82.84
2022-09-11T16:46:09.128Z,83.83
2022-09-11T16:51:12.865Z,83.29
2022-09-11T16:56:20.585Z,80.02
2022-09-11T17:01:25.659Z,77.56
2022-09-11T17:06:29.874Z,81.77
2022-09-11T17:11:32.989Z,80.57
2022-09-11T17:16:35.607Z,82.45
2022-09-11T17:21:37.895Z,79.61
2022-09-11T17:26:39.260Z,80.13
2022-09-11T17:31:40.775Z,81.65
2022-09-11T17:36:43.197Z,82.09
2022-09-11T17:41:44.712Z,82.59
2022-09-11T17:46:46.217Z,82.29
2022-09-11T17:51:48.955Z,81.56
2022-09-11T17:56:51.199Z,82.11
2022-09-11T18:01:53.277Z,82.13
2022-09-11T18:06:55.037Z,83.32
2022-09-11T18:11:56.413Z,83.49
2022-09-11T18:16:58.194Z,83.26
2022-09-11T18:21:59.869Z,82.43
2022-09-11T18:27:01.532Z,82.72
2022-09-11T18:32:03.448Z,82.96
2022-09-11T18:37:05.174Z,83.58
2022-09-11T18:42:07.367Z,83.89
2022-09-11T18:47:08.726Z,82.87
2022-09-11T18:52:10.721Z,83.98
2022-09-11T18:57:12.083Z,83.57
2022-09-11T19:02:13.663Z,86.04
2022-09-11T19:07:15.803Z,87.34
2022-09-11T19:12:17.281Z,86.59
2022-09-11T19:17:18.726Z,86.15
2022-09-11T19:22:22.739Z,85.75
2022-09-11T19:27:26.082Z,86.78
2022-09-11T19:32:28.059Z,86.19
2022-09-11T19:37:29.553Z,87.42
2022-09-11T19:42:30.931Z,88.40
2022-09-11T19:47:33.200Z,85.24
2022-09-11T19:52:35.015Z,85.45
2022-09-11T19:57:36.680Z,84.08
2022-09-11T20:02:40.338Z,84.73
2022-09-11T20:07:41.823Z,86.61
2022-09-11T20:12:43.234Z,85.63
2022-09-11T20:17:44.751Z,86.05
2022-09-11T20:22:46.278Z,86.89
2022-09-11T20:27:47.823Z,87.37
2022-09-11T20:32:49.225Z,87.93
2022-09-11T20:37:52.340Z,86.16
2022-09-11T20:42:53.682Z,85.18
2022-09-11T20:47:55.047Z,85.72
2022-09-11T20:52:57.052Z,90.53
2022-09-11T20:58:00.610Z,85.98
2022-09-11T21:03:02.192Z,85.63
2022-09-11T21:08:04.067Z,85.98
2022-09-11T21:13:05.543Z,86.82
2022-09-11T21:18:06.934Z,86.53
2022-09-11T21:23:08.604Z,86.94
2022-09-11T21:28:10.013Z,87.43
2022-09-11T21:33:11.410Z,87.79
2022-09-11T21:38:12.743Z,86.48
2022-09-11T21:43:14.184Z,86.41
2022-09-11T21:48:15.522Z,86.41
2022-09-11T21:53:16.961Z,87.95
2022-09-11T21:58:20.506Z,87.21
2022-09-11T22:03:22.091Z,87.64
2022-09-11T22:08:24.254Z,87.06
2022-09-11T22:13:25.602Z,88.62
2022-09-11T22:18:26.916Z,89.29
2022-09-11T22:23:30.086Z,86.83
2022-09-11T22:28:31.551Z,88.92
2022-09-11T22:33:33.154Z,86.48
2022-09-11T22:38:34.546Z,87.00
2022-09-11T22:43:36.589Z,87.30
2022-09-11T22:48:38.109Z,86.61
2022-09-11T22:53:39.709Z,88.30
2022-09-11T22:58:41.278Z,87.08
2022-09-11T23:03:42.727Z,87.08
2022-09-11T23:08:45.961Z,86.60
2022-09-11T23:13:48.429Z,86.16
2022-09-11T23:18:57.785Z,85.79
2022-09-11T23:24:00.238Z,87.46
2022-09-11T23:29:01.789Z,87.41
2022-09-11T23:34:06.362Z,86.75
2022-09-11T23:39:07.726Z,87.06
2022-09-11T23:44:09.075Z,87.13
2022-09-11T23:49:11.871Z,86.32
2022-09-11T23:54:13.220Z,85.99
2022-09-11T23:59:14.480Z,87.20
